Time;durP1;ratioP1;P1;durP2;ratioP2;P2;SDS_P1;SDS_P2;PMS_P1;PMS_P2;Temp;Humidity;BMP_temperature;BMP_pressure;BME280_temperature;BME280_humidity;BME280_pressure;Samples;Min_cycle;Max_cycle;Signal;HPM_P1;HPM_P2
2022/08/13 00:01:18;;;;;;;0.80;0.70;;;;;;;;;;5057104;28;20437;-75
2022/08/13 00:03:49;;;;;;;0.80;0.70;;;;;;;;;;5052805;28;20418;-75
2022/08/13 00:09:04;;;;;;;1.10;1.00;;;;;;;;;;5076256;28;20494;-75
2022/08/13 00:14:33;;;;;;;0.90;0.80;;;;;;;;;;5076560;28;20425;-75
2022/08/13 00:17:04;;;;;;;0.97;0.87;;;;;;;;;;5075910;28;20904;-75
2022/08/13 00:19:36;;;;;;;0.80;0.70;;;;;;;;;;5076250;28;20423;-76
2022/08/13 00:22:02;;;;;;;0.83;0.80;;;;;;;;;;5068522;28;21003;-74
2022/08/13 00:24:49;;;;;;;0.80;0.70;;;;;;;;;;5070228;28;20419;-75
2022/08/13 00:27:22;;;;;;;0.87;0.83;;;;;;;;;;5055910;28;20531;-75
2022/08/13 00:29:49;;;;;;;0.80;0.70;;;;;;;;;;5056986;28;20454;-74
2022/08/13 00:32:29;;;;;;;0.80;0.67;;;;;;;;;;5058801;28;20810;-75
2022/08/13 00:34:58;;;;;;;0.80;0.77;;;;;;;;;;5059111;28;20812;-76
2022/08/13 00:37:26;;;;;;;0.80;0.60;;;;;;;;;;5066731;28;20548;-75
2022/08/13 00:40:00;;;;;;;0.80;0.60;;;;;;;;;;5075022;28;20439;-75
2022/08/13 00:42:48;;;;;;;0.80;0.80;;;;;;;;;;5057609;28;20445;-75
2022/08/13 00:45:18;;;;;;;0.83;0.73;;;;;;;;;;5057901;28;20426;-75
2022/08/13 00:50:39;;;;;;;0.90;0.80;;;;;;;;;;5066767;28;20466;-76
2022/08/13 00:53:16;;;;;;;0.80;0.70;;;;;;;;;;5074699;28;20485;-75
2022/08/13 00:55:53;;;;;;;1.67;1.57;;;;;;;;;;5074523;28;20413;-75
2022/08/13 00:58:24;;;;;;;1.00;0.90;;;;;;;;;;5074399;28;20424;-75
2022/08/13 01:00:58;;;;;;;0.80;0.80;;;;;;;;;;5073497;28;20521;-75
2022/08/13 01:03:29;;;;;;;0.77;0.70;;;;;;;;;;5073759;28;20403;-75
2022/08/13 01:06:19;;;;;;;0.97;0.90;;;;;;;;;;5060219;28;20461;-77
2022/08/13 01:08:49;;;;;;;0.90;0.73;;;;;;;;;;5054982;28;20761;-75
2022/08/13 01:11:23;;;;;;;0.80;0.70;;;;;;;;;;5053586;28;20427;-75
2022/08/13 01:13:58;;;;;;;1.00;0.90;;;;;;;;;;5053964;28;20445;-75
2022/08/13 01:16:35;;;;;;;0.80;0.70;;;;;;;;;;5053531;28;20469;-75
2022/08/13 01:19:08;;;;;;;0.80;0.80;;;;;;;;;;5055463;28;20767;-75
2022/08/13 01:21:45;;;;;;;0.80;0.70;;;;;;;;;;5063115;28;20470;-75
2022/08/13 01:24:17;;;;;;;0.80;0.70;;;;;;;;;;5061812;28;20430;-76
2022/08/13 01:26:48;;;;;;;0.90;0.80;;;;;;;;;;5053228;28;20445;-76
2022/08/13 01:29:21;;;;;;;1.00;0.90;;;;;;;;;;5059368;28;20466;-75
2022/08/13 01:31:51;;;;;;;0.80;0.80;;;;;;;;;;5058953;28;20445;-75
2022/08/13 01:34:23;;;;;;;0.80;0.80;;;;;;;;;;5053664;28;20415;-75
2022/08/13 01:37:00;;;;;;;0.70;0.60;;;;;;;;;;5067750;28;20973;-75
2022/08/13 01:39:35;;;;;;;1.10;1.00;;;;;;;;;;5071425;28;20419;-76
2022/08/13 01:42:13;;;;;;;0.80;0.77;;;;;;;;;;5053586;28;20426;-75
2022/08/13 01:44:45;;;;;;;0.97;0.80;;;;;;;;;;5052908;28;20439;-75
2022/08/13 01:53:02;;;;;;;0.70;0.60;;;;;;;;;;5052294;28;21020;-75
2022/08/13 01:55:39;;;;;;;1.00;0.90;;;;;;;;;;5054145;28;20442;-76
2022/08/13 01:58:30;;;;;;;0.77;0.60;;;;;;;;;;5053004;28;20796;-76
2022/08/13 02:01:01;;;;;;;0.80;0.60;;;;;;;;;;5069748;28;20434;-76
2022/08/13 02:03:34;;;;;;;2.00;1.00;;;;;;;;;;5072212;28;20906;-76
2022/08/13 02:06:03;;;;;;;0.80;0.73;;;;;;;;;;5071771;28;20456;-75
2022/08/13 02:08:50;;;;;;;1.10;0.93;;;;;;;;;;5073154;28;20488;-76
2022/08/13 02:11:18;;;;;;;0.80;0.70;;;;;;;;;;5062228;28;20479;-76
2022/08/13 02:13:52;;;;;;;0.80;0.70;;;;;;;;;;5053238;28;20429;-76
2022/08/13 02:16:18;;;;;;;0.80;0.77;;;;;;;;;;5053800;28;20432;-75
2022/08/13 02:18:45;;;;;;;0.80;0.70;;;;;;;;;;5051655;28;20425;-76
2022/08/13 02:21:17;;;;;;;0.90;0.80;;;;;;;;;;5071037;28;20498;-75
2022/08/13 02:23:53;;;;;;;0.80;0.80;;;;;;;;;;5073737;28;20431;-76
2022/08/13 02:26:28;;;;;;;0.93;0.83;;;;;;;;;;5073523;28;20498;-75
2022/08/13 02:28:57;;;;;;;0.80;0.80;;;;;;;;;;5070578;28;20499;-75
2022/08/13 02:31:28;;;;;;;0.70;0.60;;;;;;;;;;5053186;28;20447;-76
2022/08/13 02:34:16;;;;;;;0.80;0.70;;;;;;;;;;5054006;28;20424;-75
2022/08/13 02:36:46;;;;;;;0.77;0.70;;;;;;;;;;5053381;28;20446;-75
2022/08/13 02:39:36;;;;;;;0.70;0.60;;;;;;;;;;5059986;28;20548;-76
2022/08/13 02:42:10;;;;;;;1.23;1.13;;;;;;;;;;5072356;28;20412;-75
2022/08/13 02:44:42;;;;;;;1.47;1.00;;;;;;;;;;5073111;28;20418;-75
2022/08/13 02:47:14;;;;;;;1.23;1.03;;;;;;;;;;5071615;28;20525;-75
2022/08/13 02:49:41;;;;;;;0.73;0.60;;;;;;;;;;5065185;28;20504;-76
2022/08/13 02:52:12;;;;;;;0.80;0.70;;;;;;;;;;5072840;28;20469;-75
2022/08/13 02:54:42;;;;;;;0.90;0.80;;;;;;;;;;5072734;28;20460;-75
2022/08/13 02:57:22;;;;;;;0.80;0.70;;;;;;;;;;5072718;28;20435;-74
2022/08/13 02:59:49;;;;;;;0.80;0.70;;;;;;;;;;5066767;28;20443;-75
2022/08/13 03:02:34;;;;;;;1.57;1.47;;;;;;;;;;5053103;28;20442;-75
2022/08/13 03:05:06;;;;;;;0.90;0.70;;;;;;;;;;5053681;28;20460;-76
2022/08/13 03:07:38;;;;;;;0.80;0.60;;;;;;;;;;5052224;28;20458;-76
2022/08/13 03:10:19;;;;;;;0.80;0.60;;;;;;;;;;5064046;28;20557;-76
2022/08/13 03:13:08;;;;;;;0.77;0.70;;;;;;;;;;5052508;28;20407;-76
2022/08/13 03:15:35;;;;;;;0.80;0.70;;;;;;;;;;5052249;28;20524;-76
2022/08/13 03:18:22;;;;;;;0.90;0.87;;;;;;;;;;5060255;28;20432;-76
2022/08/13 03:20:51;;;;;;;0.80;0.80;;;;;;;;;;5061944;28;20479;-76
2022/08/13 03:23:22;;;;;;;0.80;0.70;;;;;;;;;;5052347;28;20437;-75
2022/08/13 03:25:52;;;;;;;1.20;0.93;;;;;;;;;;5061494;28;20439;-76
2022/08/13 03:28:22;;;;;;;1.20;1.10;;;;;;;;;;5072282;28;20510;-76
2022/08/13 03:30:49;;;;;;;0.80;0.70;;;;;;;;;;5059725;28;20424;-76
2022/08/13 03:33:21;;;;;;;0.80;0.70;;;;;;;;;;5053032;28;20452;-76
2022/08/13 03:35:48;;;;;;;1.90;0.90;;;;;;;;;;5052112;28;20465;-76
2022/08/13 03:38:15;;;;;;;0.80;0.80;;;;;;;;;;5053311;28;20493;-76
2022/08/13 03:41:00;;;;;;;0.70;0.60;;;;;;;;;;5061753;28;20471;-76
2022/08/13 03:43:33;;;;;;;0.70;0.60;;;;;;;;;;5056169;28;20795;-76
2022/08/13 03:46:21;;;;;;;0.80;0.80;;;;;;;;;;5058563;28;20428;-76
2022/08/13 03:48:53;;;;;;;0.80;0.70;;;;;;;;;;5076249;28;20464;-76
2022/08/13 03:51:23;;;;;;;0.73;0.60;;;;;;;;;;5072540;28;20553;-76
2022/08/13 03:54:01;;;;;;;0.80;0.60;;;;;;;;;;5073783;28;20439;-76
2022/08/13 03:56:30;;;;;;;0.70;0.70;;;;;;;;;;5075367;28;20534;-76
2022/08/13 03:58:58;;;;;;;0.80;0.70;;;;;;;;;;5075947;28;20447;-76
2022/08/13 04:01:25;;;;;;;0.80;0.70;;;;;;;;;;5059312;28;20503;-76
2022/08/13 04:03:52;;;;;;;0.80;0.70;;;;;;;;;;5056531;28;20429;-76
2022/08/13 04:06:20;;;;;;;0.70;0.60;;;;;;;;;;5059399;28;20443;-76
2022/08/13 04:08:53;;;;;;;0.80;0.80;;;;;;;;;;5055830;28;20451;-76
2022/08/13 04:11:22;;;;;;;0.80;0.70;;;;;;;;;;5070034;28;20431;-76
2022/08/13 04:13:56;;;;;;;0.80;0.70;;;;;;;;;;5072519;28;20920;-76
2022/08/13 04:16:34;;;;;;;0.77;0.60;;;;;;;;;;5073858;28;22032;-76
2022/08/13 04:19:01;;;;;;;0.73;0.60;;;;;;;;;;5072368;28;20495;-76
2022/08/13 04:21:32;;;;;;;0.80;0.70;;;;;;;;;;5071678;28;20469;-76
2022/08/13 04:24:02;;;;;;;0.70;0.60;;;;;;;;;;5074927;28;20456;-76
2022/08/13 04:26:30;;;;;;;0.80;0.80;;;;;;;;;;5075514;28;20448;-76
2022/08/13 04:28:59;;;;;;;0.77;0.60;;;;;;;;;;5075319;28;20483;-76
2022/08/13 04:31:26;;;;;;;0.90;0.90;;;;;;;;;;5060787;28;20430;-75
2022/08/13 04:34:15;;;;;;;0.73;0.60;;;;;;;;;;5056714;28;20435;-75
2022/08/13 04:37:02;;;;;;;0.77;0.60;;;;;;;;;;5054279;28;20457;-76
2022/08/13 04:39:30;;;;;;;0.80;0.73;;;;;;;;;;5056143;28;20419;-75
2022/08/13 04:42:16;;;;;;;0.70;0.60;;;;;;;;;;5054566;28;20440;-76
2022/08/13 04:45:04;;;;;;;0.73;0.60;;;;;;;;;;5062867;28;20442;-75
2022/08/13 04:47:38;;;;;;;0.90;0.80;;;;;;;;;;5055583;28;20835;-76
2022/08/13 04:50:08;;;;;;;0.77;0.60;;;;;;;;;;5056400;28;20451;-76
2022/08/13 04:52:37;;;;;;;0.70;0.70;;;;;;;;;;5055561;28;20571;-76
2022/08/13 04:55:04;;;;;;;0.80;0.70;;;;;;;;;;5054276;28;20437;-75
2022/08/13 04:57:41;;;;;;;0.80;0.80;;;;;;;;;;5056837;28;20462;-75
2022/08/13 05:00:24;;;;;;;0.70;0.60;;;;;;;;;;5071302;28;20564;-76
2022/08/13 05:02:54;;;;;;;0.80;0.70;;;;;;;;;;5054515;28;20551;-75
2022/08/13 05:05:24;;;;;;;0.80;0.70;;;;;;;;;;5046486;28;20444;-75
2022/08/13 05:07:52;;;;;;;0.80;0.70;;;;;;;;;;5055941;28;20966;-75
2022/08/13 05:10:20;;;;;;;0.80;0.70;;;;;;;;;;5055284;28;20466;-74
2022/08/13 05:12:57;;;;;;;0.70;0.63;;;;;;;;;;5067066;28;20451;-75
2022/08/13 05:15:27;;;;;;;0.70;0.60;;;;;;;;;;5062192;28;20932;-75
2022/08/13 05:18:14;;;;;;;0.80;0.80;;;;;;;;;;5054895;28;20464;-77
2022/08/13 05:20:55;;;;;;;0.80;0.70;;;;;;;;;;5067348;28;20456;-76
2022/08/13 05:23:24;;;;;;;0.70;0.60;;;;;;;;;;5074260;28;20422;-76
2022/08/13 05:26:10;;;;;;;1.13;1.03;;;;;;;;;;5075715;28;20523;-76
2022/08/13 05:29:04;;;;;;;0.70;0.60;;;;;;;;;;5074961;28;20415;-76
2022/08/13 05:31:31;;;;;;;1.00;1.00;;;;;;;;;;5058389;28;20438;-76
2022/08/13 05:34:03;;;;;;;0.70;0.60;;;;;;;;;;5053830;28;20436;-76
2022/08/13 05:36:33;;;;;;;0.70;0.60;;;;;;;;;;5060805;28;20473;-76
2022/08/13 05:39:20;;;;;;;0.80;0.80;;;;;;;;;;5054794;28;20442;-76
2022/08/13 05:41:47;;;;;;;0.80;0.60;;;;;;;;;;5057209;28;20436;-76
2022/08/13 05:44:34;;;;;;;0.77;0.60;;;;;;;;;;5057717;28;20478;-76
2022/08/13 05:47:04;;;;;;;0.73;0.70;;;;;;;;;;5056029;28;20471;-77
2022/08/13 05:49:33;;;;;;;0.70;0.60;;;;;;;;;;5054035;28;20459;-77
2022/08/13 05:52:23;;;;;;;0.70;0.70;;;;;;;;;;5068878;28;20510;-75
2022/08/13 05:55:05;;;;;;;1.37;1.27;;;;;;;;;;5073439;28;20408;-75
2022/08/13 05:57:52;;;;;;;0.80;0.60;;;;;;;;;;5069879;28;20465;-76
2022/08/13 06:06:11;;;;;;;0.80;0.60;;;;;;;;;;5063006;28;20820;-75
2022/08/13 06:08:44;;;;;;;0.80;0.70;;;;;;;;;;5073673;28;20432;-75
2022/08/13 06:11:13;;;;;;;0.80;0.73;;;;;;;;;;5042515;28;20471;-76
2022/08/13 06:13:45;;;;;;;0.80;0.60;;;;;;;;;;5057854;28;21008;-76
2022/08/13 06:16:32;;;;;;;0.80;0.70;;;;;;;;;;5059018;28;20436;-76
2022/08/13 06:19:20;;;;;;;0.80;0.60;;;;;;;;;;5072093;28;20553;-75
2022/08/13 06:21:57;;;;;;;1.67;1.03;;;;;;;;;;5065405;28;21022;-76
2022/08/13 06:24:27;;;;;;;0.80;0.70;;;;;;;;;;5056379;28;20461;-76
2022/08/13 06:26:55;;;;;;;1.00;0.90;;;;;;;;;;5073862;28;20424;-76
2022/08/13 06:29:23;;;;;;;1.20;1.00;;;;;;;;;;5073018;28;20446;-75
2022/08/13 06:31:56;;;;;;;3.20;1.63;;;;;;;;;;5054894;28;20829;-76
2022/08/13 06:34:24;;;;;;;0.80;0.70;;;;;;;;;;5055362;28;20449;-75
2022/08/13 06:37:03;;;;;;;1.07;0.90;;;;;;;;;;5057236;28;20972;-75
2022/08/13 06:39:32;;;;;;;1.00;0.90;;;;;;;;;;5071395;28;20439;-76
2022/08/13 06:42:02;;;;;;;0.80;0.73;;;;;;;;;;5056438;28;20839;-76
2022/08/13 06:44:31;;;;;;;0.80;0.77;;;;;;;;;;5053229;28;20448;-76
2022/08/13 06:47:01;;;;;;;0.80;0.80;;;;;;;;;;5054058;28;20424;-77
2022/08/13 06:49:30;;;;;;;0.80;0.70;;;;;;;;;;5053860;28;20443;-77
2022/08/13 06:52:17;;;;;;;0.80;0.70;;;;;;;;;;5067668;28;20463;-76
2022/08/13 06:54:46;;;;;;;0.80;0.70;;;;;;;;;;5056167;28;20473;-76
2022/08/13 06:57:19;;;;;;;0.90;0.80;;;;;;;;;;5074057;28;20418;-76
2022/08/13 06:59:48;;;;;;;1.00;0.90;;;;;;;;;;5065919;28;20444;-75
2022/08/13 07:02:36;;;;;;;0.90;0.90;;;;;;;;;;5069137;28;20446;-75
2022/08/13 07:05:04;;;;;;;0.97;0.87;;;;;;;;;;5061969;28;20451;-75
2022/08/13 07:07:34;;;;;;;0.80;0.77;;;;;;;;;;5039058;28;20526;-76
2022/08/13 07:10:03;;;;;;;1.30;1.20;;;;;;;;;;5059815;28;20508;-76
2022/08/13 07:12:32;;;;;;;1.20;1.10;;;;;;;;;;5065205;28;20480;-76
2022/08/13 07:14:59;;;;;;;0.80;0.70;;;;;;;;;;5068988;28;20462;-75
2022/08/13 07:17:29;;;;;;;1.10;0.80;;;;;;;;;;5058429;28;20969;-75
2022/08/13 07:20:02;;;;;;;0.90;0.80;;;;;;;;;;5059304;28;20487;-75
2022/08/13 07:22:34;;;;;;;1.00;0.90;;;;;;;;;;5073366;28;20459;-75
2022/08/13 07:25:23;;;;;;;0.80;0.70;;;;;;;;;;5077566;28;20449;-75
2022/08/13 07:28:12;;;;;;;0.80;0.70;;;;;;;;;;5075902;28;20541;-75
2022/08/13 07:30:46;;;;;;;1.00;0.90;;;;;;;;;;5075015;28;20569;-75
2022/08/13 07:33:13;;;;;;;0.80;0.80;;;;;;;;;;5065395;28;20550;-75
2022/08/13 07:35:40;;;;;;;0.80;0.70;;;;;;;;;;5056933;28;20486;-75
2022/08/13 07:38:19;;;;;;;0.80;0.70;;;;;;;;;;5059270;28;20905;-74
2022/08/13 07:40:51;;;;;;;0.80;0.70;;;;;;;;;;5057618;28;20523;-75
2022/08/13 07:43:20;;;;;;;0.97;0.87;;;;;;;;;;5057531;28;20457;-75
2022/08/13 07:45:58;;;;;;;0.77;0.70;;;;;;;;;;5056538;28;20450;-74
2022/08/13 07:48:52;;;;;;;0.80;0.70;;;;;;;;;;5055209;28;20924;-75
2022/08/13 07:51:20;;;;;;;0.70;0.67;;;;;;;;;;5072270;28;20528;-75
2022/08/13 07:53:48;;;;;;;0.80;0.70;;;;;;;;;;5075768;28;20405;-75
2022/08/13 07:56:28;;;;;;;0.80;0.70;;;;;;;;;;5076454;28;20411;-76
2022/08/13 07:59:02;;;;;;;0.80;0.70;;;;;;;;;;5069522;28;20447;-75
2022/08/13 08:01:33;;;;;;;1.37;1.27;;;;;;;;;;5075185;28;20912;-76
2022/08/13 08:04:21;;;;;;;1.13;1.03;;;;;;;;;;5075534;28;20431;-75
2022/08/13 08:06:56;;;;;;;0.80;0.80;;;;;;;;;;5075552;28;20470;-75
2022/08/13 08:09:25;;;;;;;0.90;0.90;;;;;;;;;;5074968;28;20469;-75
2022/08/13 08:14:46;;;;;;;0.80;0.80;;;;;;;;;;5056105;28;20920;-75
2022/08/13 08:17:26;;;;;;;0.80;0.80;;;;;;;;;;5056666;28;20499;-74
2022/08/13 08:20:18;;;;;;;1.00;0.80;;;;;;;;;;5056412;28;20929;-75
2022/08/13 08:22:48;;;;;;;0.73;0.60;;;;;;;;;;5064616;28;20436;-72
2022/08/13 08:25:16;;;;;;;0.80;0.60;;;;;;;;;;5054828;28;20456;-75
2022/08/13 08:27:48;;;;;;;0.77;0.70;;;;;;;;;;5058466;28;20413;-74
2022/08/13 08:30:37;;;;;;;0.80;0.70;;;;;;;;;;5059017;28;20426;-73
2022/08/13 08:33:18;;;;;;;1.87;1.23;;;;;;;;;;5058450;28;20435;-74
2022/08/13 08:36:06;;;;;;;0.90;0.83;;;;;;;;;;5058974;28;20546;-72
2022/08/13 08:44:32;;;;;;;0.80;0.70;;;;;;;;;;5078537;28;20793;-73
2022/08/13 08:47:00;;;;;;;1.13;1.03;;;;;;;;;;5056156;28;20431;-73
2022/08/13 08:49:35;;;;;;;0.83;0.70;;;;;;;;;;5076207;28;20414;-73
2022/08/13 08:52:10;;;;;;;0.80;0.70;;;;;;;;;;5073317;28;20561;-73
2022/08/13 08:54:38;;;;;;;0.80;0.70;;;;;;;;;;5057575;28;20438;-73
2022/08/13 08:57:06;;;;;;;1.00;0.80;;;;;;;;;;5061299;28;20454;-73
2022/08/13 08:59:39;;;;;;;0.80;0.70;;;;;;;;;;5054441;28;20430;-73
2022/08/13 09:02:20;;;;;;;2.60;2.50;;;;;;;;;;5054518;28;20567;-73
2022/08/13 09:04:53;;;;;;;1.17;1.07;;;;;;;;;;5065748;28;20438;-73
2022/08/13 09:07:26;;;;;;;0.77;0.60;;;;;;;;;;5073189;28;20852;-73
2022/08/13 09:09:56;;;;;;;0.80;0.70;;;;;;;;;;5070053;28;20943;-73
2022/08/13 09:12:25;;;;;;;0.70;0.60;;;;;;;;;;5067671;28;20524;-72
2022/08/13 09:14:56;;;;;;;0.70;0.60;;;;;;;;;;5073274;28;20474;-73
2022/08/13 09:17:23;;;;;;;0.80;0.70;;;;;;;;;;5055453;28;20527;-74
2022/08/13 09:20:02;;;;;;;0.97;0.73;;;;;;;;;;5054668;28;20416;-72
2022/08/13 09:22:31;;;;;;;0.90;0.67;;;;;;;;;;5071205;28;20455;-73
2022/08/13 09:24:58;;;;;;;0.90;0.70;;;;;;;;;;5074702;28;20916;-74
2022/08/13 09:27:28;;;;;;;1.23;0.90;;;;;;;;;;5074371;28;20449;-73
2022/08/13 09:30:16;;;;;;;0.77;0.60;;;;;;;;;;5068195;28;20789;-72
2022/08/13 09:32:52;;;;;;;0.80;0.80;;;;;;;;;;5054644;28;20526;-74
2022/08/13 09:35:19;;;;;;;1.13;1.00;;;;;;;;;;5053454;28;20435;-73
2022/08/13 09:37:48;;;;;;;0.80;0.60;;;;;;;;;;5053815;28;21009;-73
2022/08/13 09:40:23;;;;;;;1.07;1.00;;;;;;;;;;5073204;28;20517;-72
2022/08/13 09:43:17;;;;;;;0.90;0.70;;;;;;;;;;5051238;28;20432;-72
2022/08/13 09:46:07;;;;;;;0.80;0.80;;;;;;;;;;5063307;28;20451;-73
2022/08/13 09:48:34;;;;;;;0.80;0.60;;;;;;;;;;5061357;28;20428;-72
2022/08/13 09:51:13;;;;;;;1.10;1.00;;;;;;;;;;5056942;28;20798;-72
2022/08/13 09:54:01;;;;;;;0.80;0.60;;;;;;;;;;5053501;28;20494;-72
2022/08/13 09:56:37;;;;;;;1.00;0.60;;;;;;;;;;5053395;28;20942;-73
2022/08/13 09:59:04;;;;;;;0.80;0.70;;;;;;;;;;5060423;28;20526;-73
2022/08/13 10:01:36;;;;;;;0.80;0.60;;;;;;;;;;5073821;28;20424;-72
2022/08/13 10:04:21;;;;;;;0.80;0.50;;;;;;;;;;5069351;28;20514;-73
2022/08/13 10:06:48;;;;;;;1.20;0.80;;;;;;;;;;5057202;28;20459;-72
2022/08/13 10:09:26;;;;;;;0.83;0.60;;;;;;;;;;5058075;28;20527;-71
2022/08/13 10:11:59;;;;;;;0.90;0.60;;;;;;;;;;5056377;28;20581;-72
2022/08/13 10:14:46;;;;;;;0.90;0.60;;;;;;;;;;5056247;28;20423;-73
2022/08/13 10:17:25;;;;;;;0.90;0.60;;;;;;;;;;5057098;28;20407;-72
2022/08/13 10:20:15;;;;;;;1.00;0.87;;;;;;;;;;5057884;28;20443;-72
2022/08/13 10:22:45;;;;;;;1.00;0.70;;;;;;;;;;5071919;28;20454;-73
2022/08/13 10:25:12;;;;;;;1.10;0.60;;;;;;;;;;5055276;28;20422;-72
2022/08/13 10:27:39;;;;;;;1.10;0.80;;;;;;;;;;5054318;28;20231;-72
2022/08/13 10:30:15;;;;;;;1.02;0.93;;;;;;;;;;5053637;28;20630;-73
2022/08/13 10:33:04;;;;;;;0.90;0.60;;;;;;;;;;5054227;28;20279;-73
2022/08/13 10:35:32;;;;;;;0.90;0.55;;;;;;;;;;5064741;28;20238;-73
2022/08/13 10:38:00;;;;;;;1.10;0.77;;;;;;;;;;5071133;28;20198;-73
2022/08/13 10:40:32;;;;;;;0.90;0.60;;;;;;;;;;5073854;28;20173;-72
2022/08/13 10:43:04;;;;;;;0.90;0.55;;;;;;;;;;5056430;28;20188;-72
2022/08/13 10:45:32;;;;;;;1.27;0.60;;;;;;;;;;5073562;28;20271;-72
2022/08/13 10:48:00;;;;;;;1.00;0.80;;;;;;;;;;5072896;28;20542;-72
2022/08/13 10:50:32;;;;;;;0.90;0.60;;;;;;;;;;5059906;28;20184;-73
2022/08/13 10:52:59;;;;;;;1.20;0.70;;;;;;;;;;5061417;28;20213;-74
2022/08/13 10:55:27;;;;;;;0.90;0.60;;;;;;;;;;5053152;28;20268;-73
2022/08/13 10:58:14;;;;;;;0.90;0.60;;;;;;;;;;5059540;28;20222;-74
2022/08/13 11:01:02;;;;;;;1.10;1.00;;;;;;;;;;5055292;28;20197;-73
2022/08/13 11:03:34;;;;;;;1.10;0.80;;;;;;;;;;5072325;28;20195;-73
2022/08/13 11:06:27;;;;;;;1.00;0.70;;;;;;;;;;5064734;28;20232;-73
2022/08/13 11:08:54;;;;;;;0.90;0.70;;;;;;;;;;5052504;28;20199;-74
2022/08/13 11:11:25;;;;;;;0.90;0.60;;;;;;;;;;5052001;28;20208;-75
2022/08/13 11:14:18;;;;;;;0.90;0.60;;;;;;;;;;5052146;28;20642;-75
2022/08/13 11:19:29;;;;;;;1.00;0.70;;;;;;;;;;5073275;28;20204;-74
2022/08/13 11:22:18;;;;;;;2.70;1.57;;;;;;;;;;5070536;28;20246;-75
2022/08/13 11:24:54;;;;;;;1.00;0.63;;;;;;;;;;5072221;28;20196;-75
2022/08/13 11:27:22;;;;;;;0.90;0.50;;;;;;;;;;5072489;28;20246;-75
2022/08/13 11:30:10;;;;;;;0.90;0.70;;;;;;;;;;5068133;28;20510;-75
2022/08/13 11:32:37;;;;;;;1.00;0.70;;;;;;;;;;5054063;28;20475;-74
2022/08/13 11:35:06;;;;;;;1.17;1.07;;;;;;;;;;5052022;28;20228;-75
2022/08/13 11:37:38;;;;;;;0.90;0.60;;;;;;;;;;5053597;28;20512;-73
2022/08/13 11:40:07;;;;;;;1.07;0.60;;;;;;;;;;5053350;28;20888;-75
2022/08/13 11:42:54;;;;;;;0.90;0.60;;;;;;;;;;5039065;28;20459;-73
2022/08/13 11:45:38;;;;;;;0.90;0.50;;;;;;;;;;5059456;28;20450;-73
2022/08/13 11:48:10;;;;;;;0.90;0.60;;;;;;;;;;5071924;28;20466;-75
2022/08/13 11:50:36;;;;;;;1.10;0.80;;;;;;;;;;5069244;28;20767;-74
2022/08/13 11:53:05;;;;;;;0.90;0.60;;;;;;;;;;5055350;28;20801;-75
2022/08/13 11:55:35;;;;;;;0.90;0.60;;;;;;;;;;5051270;28;20451;-75
2022/08/13 11:58:24;;;;;;;1.00;0.60;;;;;;;;;;5053551;28;20418;-73
2022/08/13 12:01:11;;;;;;;0.90;0.60;;;;;;;;;;5057051;28;20518;-74
2022/08/13 12:03:39;;;;;;;1.00;0.60;;;;;;;;;;5056024;28;20502;-75
2022/08/13 12:06:26;;;;;;;0.90;0.70;;;;;;;;;;5056850;28;20854;-75
2022/08/13 12:08:57;;;;;;;1.00;0.60;;;;;;;;;;5057219;28;20422;-74
2022/08/13 12:11:44;;;;;;;0.90;0.60;;;;;;;;;;5056768;28;20487;-74
2022/08/13 12:14:31;;;;;;;0.90;0.60;;;;;;;;;;5057274;28;20440;-75
2022/08/13 12:16:59;;;;;;;1.00;0.80;;;;;;;;;;5071213;28;20443;-75
2022/08/13 12:19:27;;;;;;;0.90;0.60;;;;;;;;;;5075539;28;20454;-75
2022/08/13 12:21:54;;;;;;;0.90;0.60;;;;;;;;;;5068246;28;20439;-75
2022/08/13 12:24:22;;;;;;;0.90;0.63;;;;;;;;;;5075130;28;20450;-76
2022/08/13 12:26:59;;;;;;;0.90;0.60;;;;;;;;;;5060281;28;20894;-76
2022/08/13 12:29:29;;;;;;;0.90;0.60;;;;;;;;;;5076677;28;20437;-75
2022/08/13 12:32:13;;;;;;;1.20;0.80;;;;;;;;;;5073499;28;20500;-74
2022/08/13 12:34:40;;;;;;;1.00;0.60;;;;;;;;;;5074995;28;20903;-74
2022/08/13 12:37:08;;;;;;;1.17;1.07;;;;;;;;;;5051945;28;20456;-74
2022/08/13 12:39:50;;;;;;;0.90;0.60;;;;;;;;;;5054452;28;20412;-75
2022/08/13 12:42:19;;;;;;;0.90;0.70;;;;;;;;;;5056273;28;20433;-75
2022/08/13 12:44:47;;;;;;;0.90;0.60;;;;;;;;;;5039760;28;20496;-75
2022/08/13 12:47:34;;;;;;;1.10;0.80;;;;;;;;;;5066499;28;20461;-74
2022/08/13 12:50:01;;;;;;;0.90;0.60;;;;;;;;;;5061778;28;20455;-76
2022/08/13 12:52:32;;;;;;;1.00;0.63;;;;;;;;;;5071087;28;20475;-75
2022/08/13 12:55:04;;;;;;;0.90;0.50;;;;;;;;;;5065241;28;20440;-75
2022/08/13 12:57:42;;;;;;;0.90;0.63;;;;;;;;;;5056527;28;20503;-75
2022/08/13 13:00:29;;;;;;;0.90;0.70;;;;;;;;;;5044538;28;20455;-75
2022/08/13 13:02:58;;;;;;;0.90;0.60;;;;;;;;;;5069025;28;20878;-76
2022/08/13 13:05:28;;;;;;;0.90;0.50;;;;;;;;;;5057923;28;20526;-75
2022/08/13 13:08:13;;;;;;;0.90;0.60;;;;;;;;;;5074341;28;20545;-76
2022/08/13 13:11:03;;;;;;;0.90;0.60;;;;;;;;;;5073140;28;20446;-76
2022/08/13 13:13:40;;;;;;;1.00;0.60;;;;;;;;;;5072207;28;20476;-76
2022/08/13 13:16:26;;;;;;;0.90;0.60;;;;;;;;;;5059192;28;20508;-75
2022/08/13 13:19:03;;;;;;;0.90;0.60;;;;;;;;;;5059431;28;20787;-74
2022/08/13 13:21:40;;;;;;;1.27;0.63;;;;;;;;;;5066497;28;20486;-75
2022/08/13 13:24:07;;;;;;;1.10;0.60;;;;;;;;;;5074078;28;20426;-75
2022/08/13 13:26:47;;;;;;;0.90;0.60;;;;;;;;;;5061605;28;20955;-75
2022/08/13 13:29:26;;;;;;;0.90;0.60;;;;;;;;;;5055190;28;20558;-75
2022/08/13 13:31:53;;;;;;;0.90;0.60;;;;;;;;;;5074037;28;20458;-76
2022/08/13 13:34:43;;;;;;;0.90;0.60;;;;;;;;;;5062883;28;20773;-75
2022/08/13 13:37:13;;;;;;;0.90;0.60;;;;;;;;;;5054595;28;20219;-75
2022/08/13 13:39:45;;;;;;;1.03;0.80;;;;;;;;;;5063370;28;20615;-74
2022/08/13 13:42:14;;;;;;;0.90;0.60;;;;;;;;;;5073585;28;20185;-74
2022/08/13 13:44:43;;;;;;;1.00;0.80;;;;;;;;;;5073048;28;20181;-74
2022/08/13 13:47:11;;;;;;;1.10;1.00;;;;;;;;;;5073019;28;20434;-74
2022/08/13 13:49:40;;;;;;;1.00;0.70;;;;;;;;;;5071514;28;20435;-74
2022/08/13 13:52:10;;;;;;;1.00;0.80;;;;;;;;;;5066221;28;20978;-75
2022/08/13 13:54:38;;;;;;;0.90;0.50;;;;;;;;;;5053213;28;20416;-75
2022/08/13 13:57:27;;;;;;;1.00;0.60;;;;;;;;;;5054632;28;20280;-75
2022/08/13 14:00:04;;;;;;;1.00;0.80;;;;;;;;;;5053288;28;20443;-75
2022/08/13 14:02:36;;;;;;;1.10;0.60;;;;;;;;;;5070932;28;21003;-74
2022/08/13 14:05:07;;;;;;;0.97;0.63;;;;;;;;;;5072485;28;20282;-74
2022/08/13 14:07:59;;;;;;;0.90;0.50;;;;;;;;;;5075821;28;20222;-74
2022/08/13 14:10:30;;;;;;;0.90;0.60;;;;;;;;;;5072640;28;20427;-75
2022/08/13 14:13:01;;;;;;;0.90;0.50;;;;;;;;;;5056593;28;20200;-74
2022/08/13 14:15:48;;;;;;;0.90;0.50;;;;;;;;;;5074014;28;20287;-75
2022/08/13 14:18:16;;;;;;;1.00;0.70;;;;;;;;;;5071679;28;20615;-75
2022/08/13 14:20:54;;;;;;;2.07;1.00;;;;;;;;;;5072087;28;20219;-76
2022/08/13 14:23:23;;;;;;;1.00;0.60;;;;;;;;;;5072083;28;20407;-75
2022/08/13 14:26:02;;;;;;;1.10;0.80;;;;;;;;;;5062968;28;20185;-75
2022/08/13 14:28:34;;;;;;;1.00;0.70;;;;;;;;;;5052264;28;20200;-75
2022/08/13 14:31:03;;;;;;;0.90;0.60;;;;;;;;;;5053309;28;20586;-75
2022/08/13 14:33:32;;;;;;;0.90;0.60;;;;;;;;;;5053731;28;20211;-75
2022/08/13 14:36:19;;;;;;;0.90;0.50;;;;;;;;;;5070190;28;20219;-76
2022/08/13 14:38:57;;;;;;;1.05;0.70;;;;;;;;;;5072444;28;20286;-76
2022/08/13 14:41:24;;;;;;;0.90;0.57;;;;;;;;;;5065649;28;20184;-76
2022/08/13 14:43:52;;;;;;;0.90;0.50;;;;;;;;;;5054401;28;20235;-76
2022/08/13 14:46:28;;;;;;;0.90;0.70;;;;;;;;;;5054304;28;20184;-76
2022/08/13 14:48:58;;;;;;;1.37;0.90;;;;;;;;;;5071539;28;20188;-75
2022/08/13 14:51:27;;;;;;;1.20;0.70;;;;;;;;;;5072022;28;20494;-76
2022/08/13 14:53:54;;;;;;;0.90;0.70;;;;;;;;;;5067618;28;20462;-75
2022/08/13 14:56:24;;;;;;;1.20;0.70;;;;;;;;;;5061299;28;20497;-76
2022/08/13 14:58:58;;;;;;;1.10;0.87;;;;;;;;;;5052965;28;20251;-76
2022/08/13 15:01:24;;;;;;;1.30;0.70;;;;;;;;;;5053863;28;20514;-75
2022/08/13 15:03:54;;;;;;;0.90;0.70;;;;;;;;;;5055290;28;20185;-76
2022/08/13 15:06:22;;;;;;;1.00;0.70;;;;;;;;;;5054024;28;20286;-76
2022/08/13 15:08:57;;;;;;;0.90;0.60;;;;;;;;;;5054583;28;20892;-77
2022/08/13 15:11:26;;;;;;;0.90;0.60;;;;;;;;;;5065297;28;20474;-77
2022/08/13 15:13:54;;;;;;;0.90;0.50;;;;;;;;;;5060761;28;20451;-81
2022/08/13 15:16:26;;;;;;;1.23;1.03;;;;;;;;;;5072555;28;20431;-76
2022/08/13 15:19:03;;;;;;;1.00;0.60;;;;;;;;;;5056564;28;20482;-81
2022/08/13 15:21:36;;;;;;;0.90;0.68;;;;;;;;;;5062841;28;20528;-78
2022/08/13 15:24:26;;;;;;;1.10;0.80;;;;;;;;;;5072823;28;20176;-81
2022/08/13 15:27:21;;;;;;;0.90;0.60;;;;;;;;;;5070953;28;20559;-80
2022/08/13 15:29:52;;;;;;;0.90;0.50;;;;;;;;;;5053062;28;20627;-82
2022/08/13 15:32:20;;;;;;;0.90;0.60;;;;;;;;;;5052827;28;20200;-81
2022/08/13 15:34:51;;;;;;;1.00;0.60;;;;;;;;;;5054608;28;20307;-79
2022/08/13 15:37:19;;;;;;;0.90;0.67;;;;;;;;;;5056313;28;20490;-80
2022/08/13 15:39:49;;;;;;;1.00;0.70;;;;;;;;;;5057111;28;20957;-81
2022/08/13 15:42:16;;;;;;;0.90;0.50;;;;;;;;;;5074056;28;20919;-81
2022/08/13 15:44:43;;;;;;;0.90;0.60;;;;;;;;;;5059413;28;20538;-78
2022/08/13 15:47:16;;;;;;;0.90;0.67;;;;;;;;;;5076351;28;20434;-78
2022/08/13 15:49:47;;;;;;;0.90;0.60;;;;;;;;;;5072369;28;20436;-80
2022/08/13 15:52:14;;;;;;;0.90;0.60;;;;;;;;;;5072134;28;20462;-78
2022/08/13 15:54:42;;;;;;;0.90;0.60;;;;;;;;;;5059850;28;20537;-79
2022/08/13 15:57:15;;;;;;;0.90;0.60;;;;;;;;;;5076646;28;20822;-79